createdAt,value
2023-04-06T00:02:12.968Z,7.46
2023-04-06T00:04:41.429Z,7.45
2023-04-06T00:07:09.582Z,7.43
2023-04-06T00:09:37.411Z,7.39
2023-04-06T00:12:05.738Z,7.41
2023-04-06T00:14:33.530Z,7.44
2023-04-06T00:17:03.016Z,7.38
2023-04-06T00:19:30.780Z,7.11
2023-04-06T00:21:58.679Z,7.02
2023-04-06T00:24:26.581Z,7.11
2023-04-06T00:26:54.366Z,7.16
2023-04-06T00:29:22.238Z,7.15
2023-04-06T00:31:50.079Z,7.16
2023-04-06T00:34:19.257Z,7.12
2023-04-06T00:36:47.075Z,7.12
2023-04-06T00:39:14.865Z,7.11
2023-04-06T00:41:51.413Z,7.07
2023-04-06T00:44:19.308Z,7.05
2023-04-06T00:46:47.360Z,7.06
2023-04-06T00:49:15.218Z,6.94
2023-04-06T00:51:44.584Z,6.84
2023-04-06T00:54:12.436Z,6.91
2023-04-06T00:56:40.582Z,6.94
2023-04-06T00:59:08.700Z,6.86
2023-04-06T01:01:36.806Z,6.63
2023-04-06T01:04:04.873Z,6.31
2023-04-06T01:06:32.706Z,6.10
2023-04-06T01:09:01.866Z,6.12
2023-04-06T01:11:29.571Z,6.15
2023-04-06T01:13:57.380Z,6.21
2023-04-06T01:16:25.987Z,6.28
2023-04-06T01:18:53.848Z,6.26
2023-04-06T01:21:21.693Z,6.25
2023-04-06T01:23:50.968Z,6.27
2023-04-06T01:26:18.906Z,6.24
2023-04-06T01:28:46.820Z,6.29
2023-04-06T01:31:14.626Z,6.30
2023-04-06T01:33:42.417Z,6.28
2023-04-06T01:36:10.369Z,6.28
2023-04-06T01:38:38.194Z,6.20
2023-04-06T01:41:07.403Z,6.16
2023-04-06T01:43:35.446Z,6.25
2023-04-06T01:46:03.535Z,6.21
2023-04-06T01:48:31.445Z,6.11
2023-04-06T01:50:59.201Z,6.09
2023-04-06T01:53:27.132Z,6.11
2023-04-06T01:55:54.930Z,5.99
2023-04-06T01:58:24.237Z,5.96
2023-04-06T02:00:52.161Z,5.90
2023-04-06T02:03:20.036Z,5.87
2023-04-06T02:05:47.972Z,5.80
2023-04-06T02:08:15.888Z,5.82
2023-04-06T02:10:43.670Z,5.86
2023-04-06T02:13:11.517Z,5.85
2023-04-06T02:15:40.695Z,5.92
2023-04-06T02:18:08.615Z,6.00
2023-04-06T02:20:39.466Z,5.93
2023-04-06T02:23:07.632Z,5.82
2023-04-06T02:25:35.820Z,5.76
2023-04-06T02:28:03.796Z,5.72
2023-04-06T02:30:33.564Z,5.63
2023-04-06T02:33:03.627Z,5.67
2023-04-06T02:35:32.762Z,5.81
2023-04-06T02:38:00.620Z,5.80
2023-04-06T02:40:28.356Z,5.82
2023-04-06T02:42:56.102Z,5.95
2023-04-06T02:45:23.813Z,5.94
2023-04-06T02:47:51.620Z,5.88
2023-04-06T02:50:20.925Z,5.86
2023-04-06T02:52:48.672Z,5.80
2023-04-06T02:55:16.618Z,5.78
2023-04-06T02:57:44.373Z,5.81
2023-04-06T03:00:13.602Z,5.59
2023-04-06T03:02:41.727Z,5.50
2023-04-06T03:05:09.666Z,5.45
2023-04-06T03:07:38.815Z,5.50
2023-04-06T03:10:07.696Z,5.41
2023-04-06T03:12:35.593Z,5.32
2023-04-06T03:15:03.354Z,5.08
2023-04-06T03:17:31.319Z,4.99
2023-04-06T03:19:59.122Z,4.99
2023-04-06T03:22:27.140Z,5.04
2023-04-06T03:24:56.413Z,5.09
2023-04-06T03:27:24.181Z,5.12
2023-04-06T03:29:51.957Z,4.93
2023-04-06T03:32:19.750Z,4.88
2023-04-06T03:34:47.603Z,4.78
2023-04-06T03:37:15.468Z,4.79
2023-04-06T03:39:43.260Z,4.83
2023-04-06T03:42:12.505Z,4.72
2023-04-06T03:44:40.320Z,4.83
2023-04-06T03:47:08.202Z,4.89
2023-04-06T03:49:35.986Z,4.96
2023-04-06T03:52:03.816Z,5.07
2023-04-06T03:54:31.624Z,5.06
2023-04-06T03:56:59.430Z,4.91
2023-04-06T03:59:28.636Z,4.71
2023-04-06T04:01:56.468Z,4.71
2023-04-06T04:04:24.327Z,4.77
2023-04-06T04:06:52.074Z,4.90
2023-04-06T04:09:19.949Z,4.96
2023-04-06T04:11:47.662Z,5.01
2023-04-06T04:14:15.507Z,5.02
2023-04-06T04:16:44.720Z,5.05
2023-04-06T04:19:12.572Z,5.04
2023-04-06T04:21:45.763Z,5.08
2023-04-06T04:24:13.782Z,5.07
2023-04-06T04:26:42.316Z,5.12
2023-04-06T04:29:10.648Z,5.14
2023-04-06T04:31:38.857Z,4.96
2023-04-06T04:34:08.801Z,4.80
2023-04-06T04:36:36.722Z,4.84
2023-04-06T04:39:04.647Z,4.84
2023-04-06T04:41:32.503Z,4.82
2023-04-06T04:44:00.329Z,4.82
2023-04-06T04:46:28.192Z,4.84
2023-04-06T04:48:56.170Z,4.83
2023-04-06T04:51:26.337Z,4.84
2023-04-06T04:53:54.105Z,4.89
2023-04-06T04:56:21.875Z,4.88
2023-04-06T04:58:49.762Z,4.88
2023-04-06T05:01:17.650Z,4.86
2023-04-06T05:03:45.779Z,4.88
2023-04-06T05:06:13.902Z,4.89
2023-04-06T05:08:43.113Z,4.95
2023-04-06T05:11:11.292Z,4.90
2023-04-06T05:13:39.382Z,4.93
2023-04-06T05:16:07.852Z,4.95
2023-04-06T05:18:35.990Z,4.96
2023-04-06T05:21:04.039Z,4.99
2023-04-06T05:23:31.886Z,5.02
2023-04-06T05:26:01.198Z,5.03
2023-04-06T05:28:29.089Z,5.09
2023-04-06T05:30:57.843Z,5.08
2023-04-06T05:33:26.236Z,5.07
2023-04-06T05:35:54.040Z,5.12
2023-04-06T05:38:22.150Z,5.16
2023-04-06T05:40:50.185Z,5.24
2023-04-06T05:43:21.137Z,5.19
2023-04-06T05:45:50.833Z,5.02
2023-04-06T05:48:18.839Z,4.79
2023-04-06T05:50:51.339Z,4.72
2023-04-06T05:53:19.217Z,4.60
2023-04-06T05:55:46.976Z,4.50
2023-04-06T05:58:15.537Z,4.46
2023-04-06T06:00:46.799Z,4.65
2023-04-06T06:03:14.906Z,4.90
2023-04-06T06:05:42.965Z,5.09
2023-04-06T06:08:11.249Z,5.23
2023-04-06T06:10:40.707Z,5.42
2023-04-06T06:13:08.479Z,5.52
2023-04-06T06:15:36.362Z,5.64
2023-04-06T06:18:05.786Z,5.73
2023-04-06T06:20:33.737Z,5.77
2023-04-06T06:23:01.623Z,5.82
2023-04-06T06:25:31.785Z,5.91
2023-04-06T06:27:59.630Z,5.96
2023-04-06T06:30:27.766Z,5.92
2023-04-06T06:32:55.722Z,6.04
2023-04-06T06:35:24.990Z,6.03
2023-04-06T06:37:52.855Z,6.02
2023-04-06T06:40:24.784Z,6.06
2023-04-06T06:42:53.286Z,6.06
2023-04-06T06:45:21.449Z,5.96
2023-04-06T06:47:49.689Z,5.90
2023-04-06T06:50:17.470Z,5.78
2023-04-06T06:52:46.672Z,5.91
2023-04-06T06:55:14.476Z,6.01
2023-04-06T06:57:43.349Z,6.13
2023-04-06T07:00:14.110Z,6.28
2023-04-06T07:02:42.359Z,6.43
2023-04-06T07:05:26.301Z,6.58
2023-04-06T07:07:57.434Z,6.58
2023-04-06T07:10:25.726Z,6.71
2023-04-06T07:12:53.642Z,6.70
2023-04-06T07:15:21.567Z,6.75
2023-04-06T07:17:49.550Z,6.84
2023-04-06T07:20:17.693Z,6.89
2023-04-06T07:22:46.361Z,6.92
2023-04-06T07:25:15.978Z,6.91
2023-04-06T07:27:43.777Z,7.01
2023-04-06T07:30:12.241Z,7.10
2023-04-06T07:32:40.093Z,7.28
2023-04-06T07:35:08.280Z,7.45
2023-04-06T07:37:37.078Z,7.60
2023-04-06T07:40:05.250Z,7.68
2023-04-06T07:42:35.016Z,7.83
2023-04-06T07:45:02.972Z,7.98
2023-04-06T07:47:30.810Z,8.10
2023-04-06T07:49:58.843Z,8.22
2023-04-06T07:52:26.842Z,8.18
2023-04-06T07:54:54.644Z,8.04
2023-04-06T07:57:22.423Z,8.12
2023-04-06T07:59:51.699Z,8.34
2023-04-06T08:02:19.715Z,8.53
2023-04-06T08:04:47.647Z,8.82
2023-04-06T08:07:15.587Z,8.99
2023-04-06T08:09:43.397Z,9.21
2023-04-06T08:12:11.181Z,9.37
2023-04-06T08:14:39.155Z,9.55
2023-04-06T08:17:08.358Z,9.72
2023-04-06T08:19:36.324Z,9.91
2023-04-06T08:22:04.547Z,10.06
2023-04-06T08:24:33.393Z,10.25
2023-04-06T08:27:01.490Z,10.37
2023-04-06T08:29:29.481Z,10.53
2023-04-06T08:31:57.349Z,10.60
2023-04-06T08:34:26.556Z,10.70
2023-04-06T08:36:54.487Z,10.97
2023-04-06T08:39:26.284Z,11.18
2023-04-06T08:41:58.004Z,11.43
2023-04-06T08:44:26.429Z,11.61
2023-04-06T08:46:54.958Z,11.84
2023-04-06T08:49:23.764Z,12.04
2023-04-06T08:51:53.275Z,12.27
2023-04-06T08:54:21.053Z,12.49
2023-04-06T08:56:50.915Z,12.78
2023-04-06T08:59:19.423Z,13.00
2023-04-06T09:01:48.213Z,13.13
2023-04-06T09:04:17.349Z,13.23
2023-04-06T09:06:45.771Z,13.57
2023-04-06T09:09:15.404Z,13.66
2023-04-06T09:11:47.764Z,13.96
2023-04-06T09:14:16.184Z,14.25
2023-04-06T09:16:45.354Z,14.52
2023-04-06T09:19:14.492Z,14.64
2023-04-06T09:21:42.461Z,15.02
2023-04-06T09:24:11.644Z,15.44
2023-04-06T09:26:50.510Z,16.42
2023-04-06T09:29:27.025Z,17.74
2023-04-06T09:32:03.799Z,18.90
2023-04-06T09:34:31.790Z,20.85
2023-04-06T09:36:59.669Z,22.71
2023-04-06T09:39:27.614Z,24.44
2023-04-06T09:41:57.381Z,25.60
2023-04-06T09:44:26.016Z,26.18
2023-04-06T09:47:00.344Z,26.27
2023-04-06T09:49:30.273Z,27.14
2023-04-06T09:52:01.673Z,27.92
2023-04-06T09:54:31.838Z,28.29
2023-04-06T09:57:11.314Z,28.98
2023-04-06T09:59:47.613Z,29.89
2023-04-06T10:02:23.227Z,31.05
2023-04-06T10:04:58.810Z,32.06
2023-04-06T10:07:28.753Z,32.37
2023-04-06T10:09:58.016Z,33.07
2023-04-06T10:12:27.252Z,33.87
2023-04-06T10:14:56.450Z,34.97
2023-04-06T10:17:25.491Z,35.20
2023-04-06T10:19:57.586Z,35.15
2023-04-06T11:16:20.873Z,22.88
2023-04-06T11:18:50.611Z,23.02
2023-04-06T11:21:18.609Z,23.19
2023-04-06T11:23:46.614Z,24.30
2023-04-06T11:26:15.532Z,25.11
2023-04-06T11:28:44.359Z,25.78
2023-04-06T11:31:12.866Z,26.26
2023-04-06T11:33:42.242Z,26.05
2023-04-06T11:36:10.569Z,24.70
2023-04-06T11:38:41.788Z,24.07
2023-04-06T11:41:09.699Z,25.31
2023-04-06T11:43:37.557Z,26.06
2023-04-06T11:46:07.789Z,25.91
2023-04-06T11:48:48.693Z,24.99
2023-04-06T11:51:24.569Z,24.58
2023-04-06T11:53:52.484Z,24.40
2023-04-06T11:56:31.004Z,23.60
2023-04-06T11:59:00.854Z,23.10
2023-04-06T12:01:29.034Z,22.54
2023-04-06T12:03:59.484Z,21.95
2023-04-06T12:06:27.673Z,21.36
2023-04-06T12:08:55.725Z,20.69
2023-04-06T12:11:23.725Z,20.39
2023-04-06T12:13:51.766Z,19.87
2023-04-06T12:16:20.541Z,19.80
2023-04-06T12:18:48.603Z,19.77
2023-04-06T12:21:17.764Z,19.82
2023-04-06T12:23:45.639Z,19.81
2023-04-06T12:26:13.562Z,19.82
2023-04-06T12:28:41.688Z,19.94
2023-04-06T12:31:16.202Z,19.23
2023-04-06T12:33:44.032Z,19.44
2023-04-06T12:36:14.647Z,18.97
2023-04-06T12:38:45.910Z,18.57
2023-04-06T12:41:14.076Z,18.40
2023-04-06T12:43:42.760Z,18.06
2023-04-06T12:46:11.105Z,18.21
2023-04-06T12:48:39.730Z,18.14
2023-04-06T12:51:08.582Z,17.92
2023-04-06T12:53:37.384Z,17.74
2023-04-06T12:56:14.302Z,17.65
2023-04-06T12:58:43.107Z,17.36
2023-04-06T13:01:11.747Z,16.99
2023-04-06T13:03:39.685Z,16.86
2023-04-06T13:06:09.290Z,16.77
2023-04-06T13:08:38.127Z,16.64
2023-04-06T13:11:09.167Z,16.78
2023-04-06T13:13:38.252Z,16.71
2023-04-06T13:16:09.201Z,16.82
2023-04-06T13:18:39.866Z,17.04
2023-04-06T13:21:08.483Z,17.01
2023-04-06T13:23:36.703Z,17.13
2023-04-06T13:26:06.228Z,17.17
2023-04-06T13:28:38.969Z,17.25
2023-04-06T13:31:07.552Z,16.99
2023-04-06T13:33:35.532Z,16.84
2023-04-06T13:36:03.697Z,16.52
2023-04-06T13:38:32.002Z,16.47
2023-04-06T13:40:59.924Z,16.30
2023-04-06T13:43:28.289Z,16.27
2023-04-06T13:45:59.181Z,16.23
2023-04-06T13:48:27.454Z,16.14
2023-04-06T13:50:56.033Z,16.16
2023-04-06T13:53:23.880Z,16.25
2023-04-06T13:55:55.514Z,16.22
2023-04-06T13:58:23.289Z,16.31
2023-04-06T14:00:52.032Z,16.38
2023-04-06T14:03:23.325Z,16.39
2023-04-06T14:05:51.218Z,16.48
2023-04-06T14:08:18.979Z,16.47
2023-04-06T14:10:46.949Z,16.56
2023-04-06T14:13:14.735Z,16.60
2023-04-06T14:15:42.566Z,16.65
2023-04-06T14:18:10.746Z,16.66
2023-04-06T14:20:39.941Z,16.67
2023-04-06T14:23:07.835Z,16.48
2023-04-06T14:25:36.067Z,16.30
2023-04-06T14:28:04.160Z,16.29
2023-04-06T14:30:32.491Z,16.18
2023-04-06T14:33:00.734Z,16.22
2023-04-06T14:35:29.372Z,16.04
2023-04-06T14:37:59.284Z,15.92
2023-04-06T14:40:27.043Z,15.92
2023-04-06T14:42:56.529Z,15.99
2023-04-06T14:45:24.282Z,15.87
2023-04-06T14:47:52.455Z,15.78
2023-04-06T14:50:20.246Z,15.76
2023-04-06T14:52:48.175Z,15.76
2023-04-06T14:55:17.326Z,15.79
2023-04-06T14:57:45.032Z,15.76
2023-04-06T15:00:14.130Z,15.77
2023-04-06T15:02:44.189Z,15.72
2023-04-06T15:05:12.735Z,15.74
2023-04-06T15:07:40.934Z,15.70
2023-04-06T15:10:12.088Z,15.72
2023-04-06T15:12:41.944Z,15.83
2023-04-06T15:15:10.766Z,15.80
2023-04-06T15:17:38.590Z,15.67
2023-04-06T15:20:07.899Z,15.73
2023-04-06T15:22:35.606Z,15.70
2023-04-06T15:25:03.536Z,15.53
2023-04-06T15:27:31.738Z,15.52
2023-04-06T15:30:01.142Z,15.53
2023-04-06T15:32:28.950Z,15.42
2023-04-06T15:34:58.371Z,15.29
2023-04-06T15:37:26.096Z,15.32
2023-04-06T15:39:53.763Z,15.31
2023-04-06T15:42:21.596Z,15.23
2023-04-06T15:44:49.377Z,15.11
2023-04-06T15:47:18.471Z,15.14
2023-04-06T15:49:46.259Z,15.16
2023-04-06T15:52:13.987Z,15.10
2023-04-06T15:54:41.986Z,15.02
2023-04-06T15:57:09.745Z,14.97
2023-04-06T15:59:37.454Z,14.92
2023-04-06T16:02:07.260Z,14.82
2023-04-06T16:04:36.508Z,14.82
2023-04-06T16:07:04.268Z,14.82
2023-04-06T16:09:31.995Z,14.81
2023-04-06T16:11:59.767Z,14.80
2023-04-06T16:14:27.552Z,14.74
2023-04-06T16:16:56.141Z,14.75
2023-04-06T16:19:23.940Z,14.71
2023-04-06T16:21:53.020Z,14.73
2023-04-06T16:24:21.043Z,14.65
2023-04-06T16:26:49.394Z,14.63
2023-04-06T16:29:18.072Z,14.60
2023-04-06T16:31:47.757Z,14.52
2023-04-06T16:34:15.876Z,14.52
2023-04-06T16:36:43.755Z,14.47
2023-04-06T16:39:12.949Z,14.47
2023-04-06T16:41:40.925Z,14.48
2023-04-06T16:44:09.177Z,14.45
2023-04-06T16:46:38.331Z,14.44
2023-04-06T16:49:07.054Z,14.40
2023-04-06T16:51:34.900Z,14.27
2023-04-06T16:54:03.081Z,14.31
2023-04-06T16:56:33.190Z,14.35
2023-04-06T16:59:01.118Z,14.35
2023-04-06T17:01:30.333Z,14.34
2023-04-06T17:03:58.426Z,14.32
2023-04-06T17:06:27.780Z,14.30
2023-04-06T17:08:55.544Z,14.30
2023-04-06T17:11:28.573Z,14.33
2023-04-06T17:14:01.853Z,14.31
2023-04-06T17:16:29.830Z,14.30
2023-04-06T17:18:58.266Z,14.25
2023-04-06T17:21:26.292Z,14.16
2023-04-06T17:23:54.479Z,14.15
2023-04-06T17:26:22.645Z,14.11
2023-04-06T17:28:50.369Z,14.07
2023-04-06T17:31:19.517Z,14.09
2023-04-06T17:33:49.736Z,14.06
2023-04-06T17:36:17.832Z,14.04
2023-04-06T17:38:46.940Z,14.00
2023-04-06T17:41:14.927Z,13.94
2023-04-06T17:43:43.061Z,13.89
2023-04-06T17:46:11.050Z,13.91
2023-04-06T17:48:40.532Z,13.91
2023-04-06T17:51:08.267Z,13.85
2023-04-06T17:53:37.093Z,13.80
2023-04-06T17:56:05.666Z,13.77
2023-04-06T17:58:33.796Z,13.75
2023-04-06T18:01:07.061Z,13.76
2023-04-06T18:03:34.803Z,13.69
2023-04-06T18:06:12.094Z,13.66
2023-04-06T18:08:39.784Z,13.49
2023-04-06T18:11:07.572Z,13.45
2023-04-06T18:13:37.155Z,13.45
2023-04-06T18:16:07.523Z,13.43
2023-04-06T18:18:35.496Z,13.37
2023-04-06T18:21:05.084Z,13.38
2023-04-06T18:23:34.221Z,13.31
2023-04-06T18:26:02.074Z,13.26
2023-04-06T18:28:31.173Z,13.19
2023-04-06T18:30:59.528Z,13.11
2023-04-06T18:33:28.146Z,13.06
2023-04-06T18:35:56.673Z,13.01
2023-04-06T18:38:24.746Z,12.94
2023-04-06T18:40:53.741Z,12.87
2023-04-06T18:43:21.520Z,12.79
2023-04-06T18:45:49.256Z,12.77
2023-04-06T18:48:16.876Z,12.77
2023-04-06T18:50:53.184Z,12.66
2023-04-06T18:53:21.173Z,12.65
2023-04-06T18:55:48.817Z,12.62
2023-04-06T18:58:17.937Z,12.62
2023-04-06T19:00:45.583Z,12.56
2023-04-06T19:03:13.429Z,12.55
2023-04-06T19:05:41.798Z,12.57
2023-04-06T19:08:09.415Z,12.56
2023-04-06T19:10:38.532Z,12.43
2023-04-06T19:13:06.689Z,12.22
2023-04-06T19:15:35.808Z,12.09
2023-04-06T19:18:03.652Z,11.83
2023-04-06T19:20:34.561Z,11.84
2023-04-06T19:23:02.950Z,11.79
2023-04-06T19:25:31.337Z,11.66
2023-04-06T19:27:59.219Z,11.64
2023-04-06T19:30:26.954Z,11.54
2023-04-06T19:32:55.967Z,11.56
2023-04-06T19:35:24.220Z,11.61
2023-04-06T19:37:52.638Z,11.63
2023-04-06T19:40:20.441Z,11.67
2023-04-06T19:42:48.281Z,11.64
2023-04-06T19:45:16.065Z,11.64
2023-04-06T19:47:43.742Z,11.62
2023-04-06T19:50:12.876Z,11.49
2023-04-06T19:52:41.322Z,11.39
2023-04-06T19:55:09.414Z,11.32
2023-04-06T19:57:37.244Z,11.25
2023-04-06T20:00:05.769Z,11.13
2023-04-06T20:02:33.467Z,11.03
2023-04-06T20:05:01.171Z,11.03
2023-04-06T20:07:30.249Z,10.99
2023-04-06T20:09:58.207Z,10.98
2023-04-06T20:12:25.878Z,11.02
2023-04-06T20:14:53.471Z,10.96
2023-04-06T20:17:21.963Z,10.89
2023-04-06T20:19:49.690Z,10.83
2023-04-06T20:22:17.334Z,10.70
2023-04-06T20:24:46.354Z,10.61
2023-04-06T20:27:14.152Z,10.58
2023-04-06T20:29:41.890Z,10.66
2023-04-06T20:32:11.184Z,10.70
2023-04-06T20:34:38.927Z,10.66
2023-04-06T20:37:06.913Z,10.61
2023-04-06T20:39:34.573Z,10.56
2023-04-06T20:42:03.598Z,10.60
2023-04-06T20:44:31.257Z,10.60
2023-04-06T20:46:58.990Z,10.59
2023-04-06T20:49:26.787Z,10.59
2023-04-06T20:51:54.438Z,10.60
2023-04-06T20:54:22.099Z,10.65
2023-04-06T20:56:49.766Z,10.67
2023-04-06T20:59:18.834Z,10.59
2023-04-06T21:01:46.509Z,10.54
2023-04-06T21:04:14.691Z,10.56
2023-04-06T21:06:42.823Z,10.50
2023-04-06T21:09:10.471Z,10.51
2023-04-06T21:11:38.141Z,10.45
2023-04-06T21:14:06.009Z,10.40
2023-04-06T21:16:35.097Z,10.29
2023-04-06T21:19:02.743Z,10.26
2023-04-06T21:21:30.542Z,10.21
2023-04-06T21:23:58.615Z,10.17
2023-04-06T21:26:26.320Z,10.14
2023-04-06T21:28:53.997Z,10.10
2023-04-06T21:31:22.250Z,10.08
2023-04-06T21:33:51.444Z,10.05
2023-04-06T21:36:19.167Z,10.02
2023-04-06T21:38:46.765Z,10.09
2023-04-06T21:41:14.440Z,10.04
2023-04-06T21:43:42.047Z,10.05
2023-04-06T21:46:09.704Z,10.02
2023-04-06T21:48:37.297Z,9.95
2023-04-06T21:51:06.298Z,9.95
2023-04-06T21:53:33.882Z,9.93
2023-04-06T21:56:02.882Z,9.91
2023-04-06T21:58:30.653Z,9.93
2023-04-06T22:00:58.536Z,10.02
2023-04-06T22:03:26.381Z,10.07
2023-04-06T22:05:54.346Z,10.07
2023-04-06T22:08:33.891Z,10.03
2023-04-06T22:11:02.438Z,9.94
2023-04-06T22:13:30.328Z,9.90
2023-04-06T22:15:57.951Z,9.83
2023-04-06T22:18:25.561Z,9.79
2023-04-06T22:20:54.328Z,9.72
2023-04-06T22:23:23.452Z,9.72
2023-04-06T22:25:51.317Z,9.74
2023-04-06T22:28:18.952Z,9.82
2023-04-06T22:30:46.554Z,9.91
2023-04-06T22:33:14.251Z,9.96
2023-04-06T22:35:41.988Z,9.88
2023-04-06T22:38:09.620Z,9.84
2023-04-06T22:40:38.570Z,9.81
2023-04-06T22:43:06.198Z,9.77
2023-04-06T22:45:33.842Z,9.68
2023-04-06T22:48:01.539Z,9.65
2023-04-06T22:50:29.202Z,9.59
2023-04-06T22:52:56.871Z,9.63
2023-04-06T22:55:24.697Z,9.60
2023-04-06T22:57:53.710Z,9.50
2023-04-06T23:00:21.574Z,9.46
2023-04-06T23:02:49.472Z,9.47
2023-04-06T23:05:17.205Z,9.47
2023-04-06T23:07:44.808Z,9.46
2023-04-06T23:10:12.639Z,9.52
2023-04-06T23:12:40.296Z,9.53
2023-04-06T23:15:10.781Z,9.48
2023-04-06T23:17:38.536Z,9.48
2023-04-06T23:20:07.428Z,9.53
2023-04-06T23:22:35.346Z,9.53
2023-04-06T23:25:03.108Z,9.58
2023-04-06T23:27:31.077Z,9.67
2023-04-06T23:29:59.548Z,9.66
2023-04-06T23:32:28.660Z,9.68
2023-04-06T23:34:56.644Z,9.72
2023-04-06T23:37:24.480Z,9.80
2023-04-06T23:39:52.140Z,9.83
2023-04-06T23:42:19.792Z,9.93
2023-04-06T23:44:47.486Z,9.98
2023-04-06T23:47:15.552Z,10.02
2023-04-06T23:49:44.506Z,10.02
2023-04-06T23:52:12.108Z,10.12
2023-04-06T23:54:39.772Z,10.03
2023-04-06T23:57:07.417Z,9.99
2023-04-06T23:59:35.077Z,10.06
